Time;durP1;ratioP1;P1;durP2;ratioP2;P2;SDS_P1;SDS_P2;PMS_P1;PMS_P2;Temp;Humidity;BMP_temperature;BMP_pressure;BME280_temperature;BME280_humidity;BME280_pressure;Samples;Min_cycle;Max_cycle;Signal;HPM_P1;HPM_P2
2022/03/28 00:01:18;;;;;;;18.77;13.73;;;3.00;99.90;;;;;;5051104;28;20021;-58
2022/03/28 00:03:44;;;;;;;18.08;12.30;;;2.80;99.90;;;;;;5051232;28;20025;-58
2022/03/28 00:06:10;;;;;;;20.38;13.48;;;2.90;99.90;;;;;;5051373;28;20508;-59
2022/03/28 00:08:37;;;;;;;21.73;12.35;;;2.90;99.90;;;;;;5051129;28;20028;-58
2022/03/28 00:11:05;;;;;;;22.85;13.43;;;2.90;99.90;;;;;;5050551;28;20100;-58
2022/03/28 00:13:30;;;;;;;26.73;14.60;;;2.90;99.90;;;;;;5050968;28;20041;-57
2022/03/28 00:15:56;;;;;;;18.88;13.13;;;2.80;99.90;;;;;;5050364;28;20036;-58
2022/03/28 00:18:22;;;;;;;22.35;12.45;;;2.80;99.90;;;;;;5050901;28;20623;-56
2022/03/28 00:20:49;;;;;;;28.05;14.18;;;2.70;99.90;;;;;;5051073;28;20010;-55
2022/03/28 00:23:15;;;;;;;22.70;12.38;;;2.70;99.90;;;;;;5051177;28;20055;-58
2022/03/28 00:25:44;;;;;;;20.95;12.57;;;2.60;99.90;;;;;;5051003;28;20044;-58
2022/03/28 00:28:10;;;;;;;18.30;13.25;;;2.50;99.90;;;;;;5049978;28;20028;-57
2022/03/28 00:30:35;;;;;;;21.27;13.15;;;2.50;99.90;;;;;;5050242;28;20027;-55
2022/03/28 00:33:01;;;;;;;19.33;13.40;;;2.60;99.90;;;;;;5050620;28;20115;-57
2022/03/28 00:35:27;;;;;;;19.83;14.02;;;2.60;99.90;;;;;;5052199;28;20025;-57
2022/03/28 00:37:53;;;;;;;24.17;13.75;;;2.50;99.90;;;;;;5053583;28;20025;-59
2022/03/28 00:40:20;;;;;;;20.38;14.07;;;2.40;99.90;;;;;;5053466;28;20112;-58
2022/03/28 00:42:48;;;;;;;23.13;13.68;;;2.40;99.90;;;;;;5053171;28;20025;-59
2022/03/28 00:45:14;;;;;;;26.20;13.27;;;2.50;99.90;;;;;;5053335;28;20057;-58
2022/03/28 00:47:41;;;;;;;20.45;12.95;;;2.50;99.90;;;;;;5053646;28;20087;-59
2022/03/28 00:50:08;;;;;;;17.67;13.27;;;2.50;99.90;;;;;;5052335;28;20032;-57
2022/03/28 00:52:34;;;;;;;26.52;13.30;;;2.40;99.90;;;;;;5054527;28;20021;-55
2022/03/28 00:55:01;;;;;;;21.17;13.57;;;2.30;99.90;;;;;;5054407;28;20100;-59
2022/03/28 00:57:29;;;;;;;23.25;13.13;;;2.30;99.90;;;;;;5053883;28;20389;-56
2022/03/28 00:59:55;;;;;;;19.42;13.98;;;2.30;99.90;;;;;;5053728;28;20029;-58
2022/03/28 01:02:21;;;;;;;27.38;15.23;;;2.20;99.90;;;;;;5053542;28;20031;-58
2022/03/28 01:04:47;;;;;;;23.48;13.85;;;2.20;99.90;;;;;;5053724;28;20021;-58
2022/03/28 01:07:13;;;;;;;21.48;13.63;;;2.20;99.90;;;;;;5053447;28;20055;-59
2022/03/28 01:09:39;;;;;;;25.98;13.38;;;2.10;99.90;;;;;;5053660;28;20035;-58
2022/03/28 01:12:06;;;;;;;24.40;13.25;;;2.00;99.90;;;;;;5053200;28;20036;-58
2022/03/28 01:14:33;;;;;;;18.40;13.35;;;2.00;99.90;;;;;;5052964;28;20733;-55
2022/03/28 01:19:43;;;;;;;23.45;14.98;;;1.80;99.90;;;;;;5053540;28;20102;-55
2022/03/28 01:22:08;;;;;;;19.55;14.48;;;1.80;99.90;;;;;;5053510;28;20460;-57
2022/03/28 01:24:35;;;;;;;23.00;13.90;;;1.80;99.90;;;;;;5053339;28;20033;-56
2022/03/28 01:27:02;;;;;;;28.20;15.18;;;1.80;99.90;;;;;;5053026;28;20216;-57
2022/03/28 01:29:27;;;;;;;23.27;14.13;;;1.80;99.90;;;;;;5053215;28;20021;-58
2022/03/28 01:31:53;;;;;;;25.65;14.70;;;1.80;99.90;;;;;;5052752;28;20082;-58
2022/03/28 01:34:20;;;;;;;22.67;14.38;;;1.80;99.90;;;;;;5052638;28;20029;-56
2022/03/28 01:36:47;;;;;;;20.30;14.82;;;1.70;99.90;;;;;;5052734;28;20048;-57
2022/03/28 01:39:17;;;;;;;17.00;13.23;;;1.60;99.90;;;;;;5052319;28;20021;-56
2022/03/28 01:41:43;;;;;;;22.30;14.80;;;1.70;99.90;;;;;;5053453;28;20033;-57
2022/03/28 01:44:09;;;;;;;23.58;14.88;;;1.70;99.90;;;;;;5053114;28;20060;-58
2022/03/28 01:46:44;;;;;;;19.00;13.40;;;1.70;99.90;;;;;;5052367;28;20098;-57
2022/03/28 01:49:10;;;;;;;20.02;14.77;;;1.70;99.90;;;;;;5052580;28;20029;-55
2022/03/28 01:51:36;;;;;;;25.60;14.60;;;1.80;99.90;;;;;;5051852;28;20036;-56
2022/03/28 01:54:02;;;;;;;25.58;13.68;;;1.80;99.90;;;;;;5052426;28;20465;-57
2022/03/28 01:56:28;;;;;;;19.17;13.30;;;1.80;99.90;;;;;;5051838;28;20017;-57
2022/03/28 01:58:54;;;;;;;21.13;13.40;;;1.80;99.90;;;;;;5051388;28;20102;-59
2022/03/28 02:01:19;;;;;;;26.48;14.70;;;1.90;99.90;;;;;;5051527;28;20376;-55
2022/03/28 02:03:45;;;;;;;26.27;14.18;;;1.80;99.90;;;;;;5050560;28;20017;-54
2022/03/28 02:06:11;;;;;;;21.48;14.15;;;1.70;99.90;;;;;;5050772;28;20108;-58
2022/03/28 02:08:37;;;;;;;27.55;14.00;;;1.60;99.90;;;;;;5052540;28;20052;-57
2022/03/28 02:11:02;;;;;;;20.75;14.57;;;1.60;99.90;;;;;;5052708;28;20017;-58
2022/03/28 02:13:28;;;;;;;24.13;15.82;;;1.60;99.90;;;;;;5052383;28;20053;-57
2022/03/28 02:15:53;;;;;;;25.23;13.15;;;1.70;99.90;;;;;;5052369;28;20025;-58
2022/03/28 02:18:19;;;;;;;20.50;13.98;;;1.70;99.90;;;;;;5051522;28;20017;-58
2022/03/28 02:20:45;;;;;;;19.92;13.15;;;1.70;99.90;;;;;;5052419;28;20025;-57
2022/03/28 02:23:10;;;;;;;20.67;13.27;;;1.70;99.90;;;;;;5052580;28;20029;-58
2022/03/28 02:25:38;;;;;;;19.48;13.02;;;1.70;99.90;;;;;;5052508;28;20057;-59
2022/03/28 02:28:05;;;;;;;24.40;13.50;;;1.70;99.90;;;;;;5052571;28;20047;-58
2022/03/28 02:30:30;;;;;;;18.42;14.10;;;1.70;99.90;;;;;;5052658;28;20077;-57
2022/03/28 02:32:57;;;;;;;20.85;13.32;;;1.70;99.90;;;;;;5052535;28;20021;-56
2022/03/28 02:35:23;;;;;;;18.10;13.05;;;1.60;99.90;;;;;;5052355;28;20063;-58
2022/03/28 02:37:49;;;;;;;25.65;14.70;;;1.60;99.90;;;;;;5052384;28;20025;-58
2022/03/28 02:40:15;;;;;;;31.88;14.40;;;1.60;99.90;;;;;;5052170;28;20078;-57
2022/03/28 02:42:41;;;;;;;24.50;14.80;;;1.50;99.90;;;;;;5052361;28;20464;-58
2022/03/28 02:45:08;;;;;;;21.38;13.77;;;1.50;99.90;;;;;;5050979;28;20591;-58
2022/03/28 02:47:34;;;;;;;21.88;14.70;;;1.30;99.90;;;;;;5051256;28;20032;-59
2022/03/28 02:50:00;;;;;;;26.20;13.88;;;1.30;99.90;;;;;;5051047;28;20025;-58
2022/03/28 02:52:26;;;;;;;22.10;13.80;;;1.20;99.90;;;;;;5051938;28;20666;-58
2022/03/28 02:54:52;;;;;;;22.17;13.25;;;1.20;99.90;;;;;;5051701;28;20040;-59
2022/03/28 02:57:18;;;;;;;22.58;13.43;;;1.20;99.90;;;;;;5050668;28;20048;-59
2022/03/28 02:59:44;;;;;;;22.10;12.80;;;1.20;99.90;;;;;;5052130;28;20064;-58
2022/03/28 03:02:09;;;;;;;23.60;14.43;;;1.10;99.90;;;;;;5052225;28;20033;-58
2022/03/28 03:04:35;;;;;;;17.83;13.40;;;1.10;99.90;;;;;;5050471;28;20036;-58
2022/03/28 03:07:01;;;;;;;17.77;12.77;;;1.10;99.90;;;;;;5051599;28;20044;-59
2022/03/28 03:09:27;;;;;;;22.25;13.68;;;1.20;99.90;;;;;;5051577;28;20025;-58
2022/03/28 03:11:53;;;;;;;23.15;14.00;;;1.20;99.90;;;;;;5051533;28;20112;-58
2022/03/28 03:14:18;;;;;;;20.48;14.30;;;1.20;99.90;;;;;;5051309;28;20041;-58
2022/03/28 03:16:44;;;;;;;18.30;12.75;;;1.20;99.90;;;;;;5051561;28;20104;-58
2022/03/28 03:19:10;;;;;;;24.48;14.63;;;1.20;99.90;;;;;;5051403;28;20078;-59
2022/03/28 03:21:36;;;;;;;32.28;14.88;;;1.10;99.90;;;;;;5051615;28;20040;-58
2022/03/28 03:24:02;;;;;;;23.98;14.48;;;1.10;99.90;;;;;;5051749;28;20447;-59
2022/03/28 03:26:28;;;;;;;32.75;15.50;;;1.00;99.90;;;;;;5051452;28;20029;-58
2022/03/28 03:28:55;;;;;;;24.98;15.10;;;1.00;99.90;;;;;;5051252;28;20115;-59
2022/03/28 03:31:22;;;;;;;26.33;14.40;;;1.00;99.90;;;;;;5051542;28;20031;-58
2022/03/28 03:33:47;;;;;;;35.67;16.00;;;1.00;99.90;;;;;;5050979;28;20067;-58
2022/03/28 03:36:13;;;;;;;25.27;14.50;;;1.00;99.90;;;;;;5051621;28;20048;-59
2022/03/28 03:38:39;;;;;;;28.88;15.68;;;0.80;99.90;;;;;;5051523;28;20032;-58
2022/03/28 03:41:04;;;;;;;26.38;15.27;;;0.80;99.90;;;;;;5051446;28;20021;-58
2022/03/28 03:43:30;;;;;;;26.88;14.35;;;0.90;99.90;;;;;;5051359;28;20404;-59
2022/03/28 03:45:56;;;;;;;31.48;15.48;;;0.90;99.90;;;;;;5051255;28;20079;-58
2022/03/28 03:48:22;;;;;;;28.25;14.98;;;0.90;99.90;;;;;;5050612;28;20082;-59
2022/03/28 03:50:47;;;;;;;20.13;13.90;;;0.90;99.90;;;;;;5049357;28;20033;-56
2022/03/28 03:53:14;;;;;;;21.60;14.70;;;1.00;99.90;;;;;;5050895;28;20051;-58
2022/03/28 03:55:40;;;;;;;20.67;14.88;;;0.90;99.90;;;;;;5051276;28;20025;-58
2022/03/28 03:58:05;;;;;;;21.05;14.63;;;0.90;99.90;;;;;;5050981;28;20021;-59
2022/03/28 04:00:31;;;;;;;24.42;15.15;;;0.80;99.90;;;;;;5050939;28;20033;-59
2022/03/28 04:02:57;;;;;;;25.58;14.55;;;0.80;99.90;;;;;;5050604;28;20371;-58
2022/03/28 04:05:23;;;;;;;21.38;14.45;;;0.90;99.90;;;;;;5050296;28;20025;-58
2022/03/28 04:07:48;;;;;;;24.17;13.63;;;0.80;99.90;;;;;;5051106;28;20101;-58
2022/03/28 04:10:14;;;;;;;22.02;14.57;;;0.90;99.90;;;;;;5052439;28;20040;-58
2022/03/28 04:12:40;;;;;;;24.17;14.73;;;0.70;99.90;;;;;;5054776;28;20032;-59
2022/03/28 04:15:07;;;;;;;23.88;15.23;;;0.80;99.90;;;;;;5055060;28;20045;-57
2022/03/28 04:17:43;;;;;;;26.42;14.52;;;0.80;99.90;;;;;;5054920;28;20104;-58
2022/03/28 04:20:12;;;;;;;24.98;14.88;;;0.60;99.90;;;;;;5055050;28;20057;-59
2022/03/28 04:22:42;;;;;;;25.77;15.25;;;0.60;99.90;;;;;;5055020;28;20104;-58
2022/03/28 04:25:09;;;;;;;24.67;14.23;;;0.70;99.90;;;;;;5054747;28;20032;-58
2022/03/28 04:27:36;;;;;;;30.83;15.82;;;0.70;99.90;;;;;;5054702;28;20036;-58
2022/03/28 04:30:07;;;;;;;21.92;15.23;;;0.80;99.90;;;;;;5054588;28;20029;-59
2022/03/28 04:32:34;;;;;;;24.73;14.65;;;0.80;99.90;;;;;;5054603;28;20060;-57
2022/03/28 04:35:00;;;;;;;24.83;14.80;;;0.80;99.90;;;;;;5054644;28;20036;-58
2022/03/28 04:37:25;;;;;;;30.15;16.58;;;0.80;99.90;;;;;;5054544;28;20471;-58
2022/03/28 04:39:51;;;;;;;20.15;14.40;;;0.70;99.90;;;;;;5054528;28;20059;-58
2022/03/28 04:42:17;;;;;;;27.38;14.60;;;0.70;99.90;;;;;;5053197;28;20025;-59
2022/03/28 04:44:42;;;;;;;34.20;14.35;;;0.60;99.90;;;;;;5054474;28;20036;-58
2022/03/28 04:47:08;;;;;;;19.05;14.32;;;0.60;99.90;;;;;;5054238;28;20029;-58
2022/03/28 04:49:34;;;;;;;23.75;14.98;;;0.60;99.90;;;;;;5054457;28;20529;-59
2022/03/28 04:51:59;;;;;;;21.27;14.20;;;0.50;99.90;;;;;;5054481;28;20036;-58
2022/03/28 04:54:25;;;;;;;26.42;14.57;;;0.60;99.90;;;;;;5054197;28;20021;-59
2022/03/28 04:56:51;;;;;;;26.88;15.25;;;0.60;99.90;;;;;;5054180;28;20036;-59
2022/03/28 04:59:17;;;;;;;19.83;14.93;;;0.70;99.90;;;;;;5054170;28;20025;-57
2022/03/28 05:01:42;;;;;;;22.42;15.20;;;0.70;99.90;;;;;;5054068;28;20111;-58
2022/03/28 05:04:08;;;;;;;21.20;14.90;;;0.70;99.90;;;;;;5054004;28;20075;-58
2022/03/28 05:06:33;;;;;;;31.15;16.30;;;0.70;99.90;;;;;;5054181;28;20032;-58
2022/03/28 05:08:59;;;;;;;28.52;15.88;;;0.70;99.90;;;;;;5054020;28;20028;-56
2022/03/28 05:11:25;;;;;;;31.25;14.88;;;0.70;99.90;;;;;;5053874;28;20029;-58
2022/03/28 05:13:51;;;;;;;30.30;15.98;;;0.60;99.90;;;;;;5053698;28;20094;-57
2022/03/28 05:16:17;;;;;;;26.33;17.17;;;0.70;99.90;;;;;;5054059;28;20021;-58
2022/03/28 05:18:43;;;;;;;33.65;16.95;;;0.60;99.90;;;;;;5053902;28;20042;-59
2022/03/28 05:21:09;;;;;;;26.52;16.48;;;0.70;99.90;;;;;;5054001;28;20029;-56
2022/03/28 05:23:35;;;;;;;24.52;16.45;;;0.70;99.90;;;;;;5052639;28;20021;-58
2022/03/28 05:26:02;;;;;;;79.32;37.00;;;0.70;99.90;;;;;;5053765;28;20365;-59
2022/03/28 05:28:28;;;;;;;89.63;42.95;;;0.80;99.90;;;;;;5053745;28;20029;-59
2022/03/28 05:30:57;;;;;;;40.55;22.30;;;0.80;99.90;;;;;;5053583;28;20048;-57
2022/03/28 05:33:23;;;;;;;30.63;18.05;;;0.90;99.90;;;;;;5053439;28;20021;-59
2022/03/28 05:35:50;;;;;;;29.73;18.38;;;0.80;99.90;;;;;;5053741;28;20017;-58
2022/03/28 05:38:15;;;;;;;30.30;17.52;;;0.90;99.90;;;;;;5053596;28;20025;-57
2022/03/28 05:40:41;;;;;;;26.42;16.33;;;1.00;99.90;;;;;;5053759;28;20029;-58
2022/03/28 05:43:07;;;;;;;28.42;17.60;;;1.00;99.90;;;;;;5053421;28;20033;-58
2022/03/28 05:45:35;;;;;;;37.00;20.48;;;1.10;99.90;;;;;;5051973;28;20033;-58
2022/03/28 05:48:00;;;;;;;34.67;18.90;;;1.20;99.90;;;;;;5053496;28;20095;-58
2022/03/28 05:50:26;;;;;;;45.60;25.55;;;1.30;99.90;;;;;;5053390;28;20032;-56
2022/03/28 05:52:51;;;;;;;69.05;34.30;;;1.30;99.90;;;;;;5052327;28;20032;-59
2022/03/28 05:55:17;;;;;;;59.20;31.40;;;1.40;99.90;;;;;;5052667;28;20589;-58
2022/03/28 05:57:43;;;;;;;31.55;19.85;;;1.50;99.90;;;;;;5053311;28;20048;-58
2022/03/28 06:00:09;;;;;;;32.42;18.48;;;1.70;99.90;;;;;;5053177;28;20028;-58
2022/03/28 06:02:36;;;;;;;43.88;24.02;;;1.80;99.90;;;;;;5053073;28;20694;-56
2022/03/28 06:05:03;;;;;;;33.30;22.83;;;1.80;99.90;;;;;;5053024;28;20036;-57
2022/03/28 06:07:28;;;;;;;36.95;20.90;;;1.90;99.90;;;;;;5052876;28;20033;-58
2022/03/28 06:09:54;;;;;;;35.22;21.25;;;2.00;99.90;;;;;;5052944;28;20028;-57
2022/03/28 06:12:20;;;;;;;44.97;24.45;;;2.20;99.90;;;;;;5052801;28;20365;-54
2022/03/28 06:14:45;;;;;;;37.63;21.52;;;2.30;99.90;;;;;;5051419;28;20041;-59
2022/03/28 06:17:23;;;;;;;42.83;22.45;;;2.50;99.90;;;;;;5053176;28;20029;-59
2022/03/28 06:19:49;;;;;;;32.88;17.15;;;2.70;99.90;;;;;;5051460;28;20060;-58
2022/03/28 06:22:15;;;;;;;26.63;18.15;;;2.80;99.90;;;;;;5051733;28;20489;-59
2022/03/28 06:24:41;;;;;;;34.25;18.15;;;2.90;99.90;;;;;;5051578;28;20107;-58
2022/03/28 06:27:07;;;;;;;35.75;19.88;;;2.90;99.90;;;;;;5051470;28;20653;-58
2022/03/28 06:29:33;;;;;;;36.20;23.15;;;3.00;99.90;;;;;;5051423;28;20059;-55
2022/03/28 06:31:59;;;;;;;50.10;22.88;;;3.20;99.90;;;;;;5051881;28;20048;-53
2022/03/28 06:34:24;;;;;;;36.38;23.85;;;3.40;99.90;;;;;;5051846;28;20021;-59
2022/03/28 06:36:50;;;;;;;35.50;22.58;;;3.60;99.90;;;;;;5051618;28;20090;-53
2022/03/28 06:39:16;;;;;;;49.65;24.27;;;3.80;99.90;;;;;;5051192;28;20029;-52
2022/03/28 06:41:43;;;;;;;35.35;21.70;;;4.00;99.90;;;;;;5051443;28;20028;-52
2022/03/28 06:44:11;;;;;;;37.15;22.77;;;4.20;99.90;;;;;;5052207;28;20475;-56
2022/03/28 06:46:39;;;;;;;25.33;16.52;;;4.40;99.90;;;;;;5052499;28;20048;-55
2022/03/28 06:49:05;;;;;;;33.40;19.70;;;4.60;99.90;;;;;;5052245;28;20100;-57
2022/03/28 06:51:32;;;;;;;31.40;19.88;;;4.80;99.90;;;;;;5052064;28;20116;-56
2022/03/28 06:53:58;;;;;;;24.70;18.42;;;5.00;99.90;;;;;;5051973;28;20028;-55
2022/03/28 06:56:24;;;;;;;33.08;19.42;;;5.20;99.90;;;;;;5052011;28;20028;-57
2022/03/28 06:58:50;;;;;;;30.42;19.48;;;5.20;99.90;;;;;;5052282;28;20483;-55
2022/03/28 07:01:16;;;;;;;24.63;18.95;;;5.30;99.90;;;;;;5052192;28;20032;-56
2022/03/28 07:03:41;;;;;;;31.75;19.90;;;5.40;99.90;;;;;;5052130;28;20029;-57
2022/03/28 07:06:09;;;;;;;23.48;17.88;;;5.50;99.90;;;;;;5052040;28;20020;-56
2022/03/28 07:08:35;;;;;;;30.02;20.73;;;5.70;99.90;;;;;;5051947;28;20600;-57
2022/03/28 07:11:02;;;;;;;32.13;18.30;;;5.90;99.90;;;;;;5051952;28;20116;-58
2022/03/28 07:13:28;;;;;;;31.92;18.58;;;6.10;99.90;;;;;;5051661;28;20057;-57
2022/03/28 07:15:53;;;;;;;24.58;17.52;;;6.30;99.90;;;;;;5051882;28;20028;-58
2022/03/28 07:18:19;;;;;;;24.23;16.55;;;6.50;99.90;;;;;;5051873;28;20017;-58
2022/03/28 07:20:46;;;;;;;28.58;18.70;;;6.70;99.90;;;;;;5051765;28;20372;-58
2022/03/28 07:23:13;;;;;;;29.00;17.95;;;6.90;99.90;;;;;;5051801;28;20028;-59
2022/03/28 07:25:39;;;;;;;24.48;17.05;;;7.10;99.90;;;;;;5051852;28;20013;-58
2022/03/28 07:28:09;;;;;;;23.70;17.45;;;7.30;99.90;;;;;;5051443;28;20494;-57
2022/03/28 07:30:35;;;;;;;27.55;17.58;;;7.50;99.90;;;;;;5051562;28;20021;-58
2022/03/28 07:33:02;;;;;;;22.33;16.40;;;7.60;99.90;;;;;;5051449;28;20036;-57
2022/03/28 07:35:29;;;;;;;23.48;17.23;;;7.90;99.90;;;;;;5051560;28;20021;-58
2022/03/28 07:37:55;;;;;;;25.10;16.20;;;8.00;99.90;;;;;;5051124;28;20108;-57
2022/03/28 07:40:21;;;;;;;23.48;16.08;;;8.20;99.90;;;;;;5051474;28;20049;-58
2022/03/28 07:42:47;;;;;;;22.52;15.93;;;8.40;99.90;;;;;;5050432;28;20597;-52
2022/03/28 07:45:14;;;;;;;26.55;15.95;;;8.50;99.90;;;;;;5050088;28;20025;-57
2022/03/28 07:47:41;;;;;;;22.55;16.65;;;8.70;99.90;;;;;;5051545;28;20036;-58
2022/03/28 07:50:08;;;;;;;23.52;15.85;;;8.90;99.90;;;;;;5051381;28;20044;-58
2022/03/28 07:52:34;;;;;;;25.58;15.70;;;9.10;99.90;;;;;;5051315;28;20029;-57
2022/03/28 07:55:01;;;;;;;24.92;14.90;;;9.10;99.90;;;;;;5058549;28;20021;-58
2022/03/28 07:57:27;;;;;;;23.35;15.68;;;9.30;99.90;;;;;;5071178;28;20021;-59
2022/03/28 07:59:53;;;;;;;29.08;16.63;;;9.50;99.90;;;;;;5070408;28;20368;-58
2022/03/28 08:02:18;;;;;;;21.45;15.50;;;9.70;99.90;;;;;;5071013;28;20082;-56
2022/03/28 08:04:45;;;;;;;29.23;16.48;;;9.90;99.90;;;;;;5070815;28;20109;-58
2022/03/28 08:07:12;;;;;;;29.00;15.07;;;10.10;99.90;;;;;;5071258;28;20028;-59
2022/03/28 08:09:40;;;;;;;25.30;15.18;;;10.30;99.90;;;;;;5070711;28;20078;-59
2022/03/28 08:12:06;;;;;;;23.70;14.35;;;10.50;99.90;;;;;;5071171;28;20028;-58
2022/03/28 08:14:33;;;;;;;22.27;14.90;;;10.70;99.90;;;;;;5071037;28;20102;-55
2022/03/28 08:16:59;;;;;;;19.83;12.50;;;10.80;99.90;;;;;;5069701;28;20684;-57
2022/03/28 08:19:25;;;;;;;24.63;15.95;;;11.00;99.90;;;;;;5070938;28;20051;-58
2022/03/28 08:21:51;;;;;;;25.38;14.13;;;11.30;99.90;;;;;;5070741;28;20032;-55
2022/03/28 08:24:18;;;;;;;22.92;14.80;;;11.40;99.90;;;;;;5070949;28;20089;-59
2022/03/28 08:26:44;;;;;;;28.15;14.57;;;11.60;99.90;;;;;;5070797;28;20024;-59
2022/03/28 08:29:10;;;;;;;29.17;14.35;;;11.80;99.90;;;;;;5070995;28;20424;-57
2022/03/28 08:31:36;;;;;;;20.30;13.77;;;12.00;99.90;;;;;;5070715;28;20029;-58
2022/03/28 08:34:01;;;;;;;24.45;14.10;;;12.20;99.90;;;;;;5070423;28;20036;-60
2022/03/28 08:36:27;;;;;;;17.00;13.23;;;12.40;99.20;;;;;;5069732;28;20085;-57
2022/03/28 08:38:53;;;;;;;23.38;14.23;;;12.50;98.70;;;;;;5069669;28;20032;-57
2022/03/28 08:41:20;;;;;;;21.80;13.65;;;12.70;98.70;;;;;;5069991;28;20025;-59
2022/03/28 08:43:46;;;;;;;24.00;15.20;;;12.90;96.40;;;;;;5069082;28;20029;-59
2022/03/28 08:46:15;;;;;;;24.42;14.57;;;13.10;97.20;;;;;;5070476;28;20032;-59
2022/03/28 08:48:41;;;;;;;23.38;12.60;;;13.30;95.70;;;;;;5070612;28;20063;-59
2022/03/28 08:51:12;;;;;;;22.33;13.65;;;13.50;94.80;;;;;;5070436;28;20026;-58
2022/03/28 08:53:38;;;;;;;24.20;13.45;;;13.60;94.60;;;;;;5070547;28;20391;-58
2022/03/28 08:56:07;;;;;;;24.60;14.07;;;13.80;94.80;;;;;;5071746;28;20029;-59
2022/03/28 08:58:32;;;;;;;26.08;14.35;;;14.00;94.80;;;;;;5074301;28;20371;-59
2022/03/28 09:00:58;;;;;;;23.17;14.85;;;14.20;93.60;;;;;;5074031;28;20020;-59
2022/03/28 09:03:44;;;;;;;23.25;13.52;;;14.40;93.00;;;;;;5074115;28;20044;-59
2022/03/28 09:06:31;;;;;;;24.73;13.10;;;14.50;92.40;;;;;;5074092;28;20045;-59
2022/03/28 09:09:12;;;;;;;25.38;14.13;;;14.90;91.30;;;;;;5074040;28;20027;-59
2022/03/28 09:11:42;;;;;;;18.92;12.00;;;15.10;89.30;;;;;;5074094;28;20051;-59
2022/03/28 09:14:11;;;;;;;20.00;12.77;;;15.30;83.80;;;;;;5073630;28;20047;-60
2022/03/28 09:16:37;;;;;;;22.83;12.43;;;15.30;82.60;;;;;;5073789;28;20021;-59
2022/03/28 09:19:09;;;;;;;23.73;12.63;;;15.50;80.60;;;;;;5073568;28;20029;-59
2022/03/28 09:21:35;;;;;;;25.00;12.73;;;15.70;83.00;;;;;;5073575;28;20112;-59
2022/03/28 09:24:04;;;;;;;18.85;11.00;;;15.80;79.10;;;;;;5073404;28;20103;-60
2022/03/28 09:26:30;;;;;;;19.67;11.65;;;16.00;79.70;;;;;;5073941;28;20027;-59
2022/03/28 09:29:00;;;;;;;24.95;13.25;;;16.20;77.30;;;;;;5073497;28;20538;-59
2022/03/28 09:31:48;;;;;;;25.42;12.27;;;16.30;76.90;;;;;;5071052;28;20424;-59
2022/03/28 09:34:15;;;;;;;25.67;13.10;;;16.30;74.30;;;;;;5072757;28;20400;-59
2022/03/28 09:36:53;;;;;;;22.58;12.35;;;16.10;72.40;;;;;;5073231;28;20029;-59
2022/03/28 09:39:29;;;;;;;17.27;11.90;;;16.30;72.80;;;;;;5073106;28;20017;-60
2022/03/28 09:42:11;;;;;;;20.63;11.95;;;16.50;71.40;;;;;;5073170;28;20154;-59
2022/03/28 09:44:42;;;;;;;24.52;13.93;;;16.80;71.10;;;;;;5073258;28;20036;-60
2022/03/28 09:47:09;;;;;;;25.98;13.05;;;16.70;68.90;;;;;;5073664;28;20494;-59
2022/03/28 09:49:37;;;;;;;20.63;12.63;;;16.70;71.00;;;;;;5071955;28;20488;-60
2022/03/28 09:52:08;;;;;;;21.75;12.80;;;17.20;67.90;;;;;;5073046;28;20036;-60
2022/03/28 09:54:54;;;;;;;20.55;13.07;;;17.60;67.80;;;;;;5071932;28;20499;-60
2022/03/28 09:57:43;;;;;;;20.48;11.43;;;17.70;66.90;;;;;;5073197;28;20021;-60
2022/03/28 10:00:13;;;;;;;21.83;12.88;;;18.20;64.60;;;;;;5073110;28;20024;-59
2022/03/28 10:02:39;;;;;;;20.55;11.48;;;18.20;63.90;;;;;;5072991;28;20567;-59
2022/03/28 10:05:06;;;;;;;19.70;11.88;;;18.20;61.90;;;;;;5062498;28;20025;-60
2022/03/28 10:07:33;;;;;;;16.65;12.20;;;18.50;59.20;;;;;;5052357;28;20035;-60
2022/03/28 10:09:59;;;;;;;22.40;12.32;;;18.50;59.50;;;;;;5052731;28;20039;-60
2022/03/28 10:12:25;;;;;;;18.63;11.05;;;18.60;58.40;;;;;;5052936;28;20029;-60
2022/03/28 10:14:57;;;;;;;21.42;11.50;;;18.90;58.90;;;;;;5052762;28;20048;-60
2022/03/28 10:17:24;;;;;;;21.63;11.30;;;19.00;55.80;;;;;;5052945;28;20086;-60
2022/03/28 10:19:50;;;;;;;26.00;11.95;;;19.40;53.80;;;;;;5052664;28;20113;-60
2022/03/28 10:22:21;;;;;;;20.33;11.88;;;19.60;52.30;;;;;;5052907;28;20060;-60
2022/03/28 10:24:50;;;;;;;26.02;12.05;;;19.80;49.70;;;;;;5052645;28;20591;-60
2022/03/28 10:27:17;;;;;;;23.98;12.40;;;19.80;51.00;;;;;;5052887;28;20103;-60
2022/03/28 10:29:45;;;;;;;18.58;10.93;;;19.60;48.60;;;;;;5070612;28;20602;-59
2022/03/28 10:32:21;;;;;;;20.40;11.52;;;19.60;51.30;;;;;;5072581;28;20031;-60
2022/03/28 10:34:56;;;;;;;15.55;11.30;;;19.50;48.30;;;;;;5072187;28;20020;-60
2022/03/28 10:37:28;;;;;;;18.63;11.48;;;19.50;48.40;;;;;;5057618;28;20030;-60
2022/03/28 10:40:23;;;;;;;19.17;11.07;;;20.00;48.00;;;;;;5042777;28;20041;-60
2022/03/28 10:42:58;;;;;;;22.48;11.93;;;20.30;49.70;;;;;;5060916;28;20055;-60
2022/03/28 10:45:34;;;;;;;22.13;11.32;;;19.60;47.50;;;;;;5059776;28;20044;-60
2022/03/28 10:48:00;;;;;;;18.38;11.27;;;20.30;48.20;;;;;;5060713;28;20047;-60
2022/03/28 10:50:54;;;;;;;26.17;13.70;;;20.50;48.60;;;;;;5061272;28;20033;-60
2022/03/28 10:53:39;;;;;;;38.33;16.63;;;20.50;46.10;;;;;;5061497;28;20083;-60
2022/03/28 10:56:14;;;;;;;36.30;18.67;;;20.90;47.50;;;;;;5060510;28;20029;-60
2022/03/28 10:58:53;;;;;;;19.95;12.05;;;20.30;45.30;;;;;;5061496;28;20110;-60
2022/03/28 11:01:31;;;;;;;22.27;13.27;;;20.30;46.30;;;;;;5060973;28;20119;-60
2022/03/28 11:04:23;;;;;;;19.88;11.35;;;20.80;46.00;;;;;;5060491;28;20032;-60
2022/03/28 11:07:07;;;;;;;23.98;13.15;;;21.50;43.80;;;;;;5046495;28;20040;-60
2022/03/28 11:09:45;;;;;;;20.17;12.60;;;22.50;42.10;;;;;;5042481;28;20037;-60
2022/03/28 11:12:19;;;;;;;18.83;11.93;;;23.60;38.70;;;;;;5039640;28;20033;-60
2022/03/28 11:14:51;;;;;;;22.50;13.15;;;25.20;38.30;;;;;;5040995;28;20056;-60
2022/03/28 11:17:20;;;;;;;20.83;12.52;;;25.70;35.70;;;;;;5041415;28;20037;-60
2022/03/28 11:20:08;;;;;;;22.35;13.27;;;26.70;34.70;;;;;;5040926;28;20029;-60
2022/03/28 11:22:49;;;;;;;31.23;17.08;;;26.70;33.90;;;;;;5040723;28;20033;-60
2022/03/28 11:25:27;;;;;;;24.90;12.55;;;25.60;32.80;;;;;;5040820;28;20080;-60
2022/03/28 11:28:11;;;;;;;22.33;13.35;;;25.20;33.40;;;;;;5040935;28;20162;-61
2022/03/28 11:31:11;;;;;;;27.67;13.38;;;26.00;33.40;;;;;;5050566;28;20056;-60
2022/03/28 11:33:43;;;;;;;18.08;11.15;;;28.30;32.10;;;;;;5051359;28;20051;-60
2022/03/28 11:36:10;;;;;;;21.48;11.98;;;28.10;31.40;;;;;;5051277;28;20029;-61
2022/03/28 11:38:40;;;;;;;20.55;12.25;;;28.70;30.60;;;;;;5051613;28;20017;-58
2022/03/28 11:41:08;;;;;;;18.90;10.90;;;29.00;30.90;;;;;;5051371;28;20063;-59
2022/03/28 11:44:00;;;;;;;17.27;11.68;;;28.60;30.60;;;;;;5051432;28;20033;-59
2022/03/28 11:46:30;;;;;;;25.13;12.32;;;30.10;29.70;;;;;;5050776;28;20041;-59
2022/03/28 11:49:06;;;;;;;35.90;13.15;;;29.10;29.40;;;;;;5051248;28;20029;-59
2022/03/28 11:51:44;;;;;;;29.10;12.20;;;28.00;31.00;;;;;;5051285;28;20025;-59
2022/03/28 11:54:18;;;;;;;16.33;12.18;;;29.60;30.00;;;;;;5051378;28;20419;-59
2022/03/28 11:59:32;;;;;;;18.38;12.77;;;29.70;29.50;;;;;;5051549;28;20070;-59
2022/03/28 12:02:01;;;;;;;22.95;11.55;;;31.00;28.60;;;;;;5050431;28;20025;-59
2022/03/28 12:04:28;;;;;;;20.27;12.00;;;31.20;28.60;;;;;;5051210;28;20391;-59
2022/03/28 12:06:54;;;;;;;20.13;13.57;;;31.10;28.80;;;;;;5050726;28;20035;-59
2022/03/28 12:09:23;;;;;;;18.73;12.80;;;29.40;28.70;;;;;;5051226;28;20029;-59
2022/03/28 12:11:52;;;;;;;16.95;12.52;;;27.10;29.50;;;;;;5050851;28;20116;-59
2022/03/28 12:14:19;;;;;;;20.58;12.73;;;28.40;30.20;;;;;;5051075;28;20564;-59
2022/03/28 12:16:49;;;;;;;27.60;13.75;;;28.90;29.40;;;;;;5050769;28;20025;-59
2022/03/28 12:19:26;;;;;;;22.08;13.20;;;28.00;28.80;;;;;;5051178;28;20017;-59
2022/03/28 12:21:54;;;;;;;19.70;12.60;;;29.10;29.10;;;;;;5050941;28;20033;-59
2022/03/28 12:24:22;;;;;;;20.40;14.20;;;30.60;29.20;;;;;;5051252;28;20483;-59
2022/03/28 12:26:49;;;;;;;20.23;14.05;;;29.50;29.00;;;;;;5050916;28;20025;-60
2022/03/28 12:29:16;;;;;;;17.17;12.60;;;29.60;28.90;;;;;;5051024;28;20021;-60
2022/03/28 12:31:47;;;;;;;26.58;14.07;;;29.90;29.20;;;;;;5053219;28;20032;-59
2022/03/28 12:34:14;;;;;;;33.85;14.82;;;28.20;28.90;;;;;;5054689;28;20423;-59
2022/03/28 12:36:39;;;;;;;23.92;13.50;;;28.00;29.80;;;;;;5053494;28;20067;-59
2022/03/28 12:39:07;;;;;;;22.23;12.63;;;28.50;28.60;;;;;;5054511;28;20057;-59
2022/03/28 12:41:53;;;;;;;30.92;15.80;;;28.30;28.80;;;;;;5054512;28;20025;-59
2022/03/28 12:44:23;;;;;;;32.75;13.73;;;28.90;28.40;;;;;;5054415;28;20421;-59